createdAt,value
2022-09-22T00:02:14.554Z,86.93
2022-09-22T00:04:41.263Z,86.61
2022-09-22T00:07:07.573Z,86.55
2022-09-22T00:09:33.875Z,86.67
2022-09-22T00:12:00.893Z,86.49
2022-09-22T00:14:28.218Z,87.45
2022-09-22T00:16:57.570Z,87.63
2022-09-22T00:19:36.418Z,88.16
2022-09-22T00:22:04.124Z,87.72
2022-09-22T00:24:31.369Z,87.47
2022-09-22T00:26:59.592Z,87.25
2022-09-22T00:29:27.685Z,87.17
2022-09-22T00:31:55.922Z,86.56
2022-09-22T00:34:25.389Z,87.12
2022-09-22T00:36:51.875Z,87.48
2022-09-22T00:39:19.296Z,88.60
2022-09-22T00:41:51.361Z,88.47
2022-09-22T00:44:26.823Z,88.99
2022-09-22T00:46:59.692Z,87.40
2022-09-22T00:49:43.247Z,87.49
2022-09-22T00:52:11.231Z,87.59
2022-09-22T00:54:39.503Z,87.84
2022-09-22T00:57:10.210Z,86.93
2022-09-22T00:59:37.510Z,87.16
2022-09-22T01:02:04.557Z,86.77
2022-09-22T01:04:30.947Z,88.18
2022-09-22T01:06:59.351Z,87.95
2022-09-22T01:09:27.475Z,87.05
2022-09-22T01:11:53.899Z,87.76
2022-09-22T01:14:52.531Z,87.64
2022-09-22T01:17:49.868Z,88.18
2022-09-22T01:20:50.350Z,87.49
2022-09-22T01:23:31.869Z,87.41
2022-09-22T01:26:13.688Z,87.07
2022-09-22T01:29:03.432Z,86.51
2022-09-22T01:31:30.318Z,86.65
2022-09-22T01:34:13.449Z,87.16
2022-09-22T01:37:13.623Z,87.27
2022-09-22T01:39:49.872Z,88.03
2022-09-22T01:42:24.018Z,87.40
2022-09-22T01:45:02.711Z,87.09
2022-09-22T01:47:42.159Z,87.07
2022-09-22T01:50:18.187Z,87.51
2022-09-22T01:52:45.211Z,87.74
2022-09-22T01:55:25.148Z,87.26
2022-09-22T01:57:57.724Z,88.46
2022-09-22T02:00:24.677Z,87.87
2022-09-22T02:03:14.901Z,89.16
2022-09-22T02:05:53.971Z,88.25
2022-09-22T02:08:50.111Z,87.75
2022-09-22T02:11:16.618Z,88.58
2022-09-22T02:13:44.607Z,87.77
2022-09-22T02:16:14.849Z,88.49
2022-09-22T02:19:12.016Z,88.19
2022-09-22T02:21:42.288Z,87.63
2022-09-22T02:24:26.426Z,88.64
2022-09-22T02:26:53.863Z,89.33
2022-09-22T02:29:20.505Z,88.58
2022-09-22T02:31:46.957Z,88.72
2022-09-22T02:34:13.858Z,87.69
2022-09-22T02:36:57.639Z,87.92
2022-09-22T02:39:39.172Z,88.63
2022-09-22T02:42:25.366Z,88.15
2022-09-22T02:45:09.729Z,87.86
2022-09-22T02:47:57.069Z,87.65
2022-09-22T02:50:26.666Z,87.25
2022-09-22T02:52:57.530Z,87.21
2022-09-22T02:55:23.863Z,87.17
2022-09-22T02:57:50.607Z,87.77
2022-09-22T03:00:17.082Z,88.06
2022-09-22T03:02:43.427Z,87.28
2022-09-22T03:05:10.227Z,87.04
2022-09-22T03:07:37.288Z,86.75
2022-09-22T03:10:03.986Z,87.27
2022-09-22T03:12:30.355Z,86.76
2022-09-22T03:14:57.032Z,87.40
2022-09-22T03:17:23.447Z,87.25
2022-09-22T03:19:49.756Z,87.18
2022-09-22T03:22:16.795Z,86.93
2022-09-22T03:24:43.239Z,86.90
2022-09-22T03:27:09.538Z,86.79
2022-09-22T03:29:36.242Z,87.22
2022-09-22T03:32:02.582Z,87.08
2022-09-22T03:34:28.922Z,87.03
2022-09-22T03:36:55.934Z,87.48
2022-09-22T03:39:22.230Z,87.23
2022-09-22T03:41:49.486Z,87.13
2022-09-22T03:44:16.178Z,87.23
2022-09-22T03:46:42.568Z,87.36
2022-09-22T03:49:09.350Z,87.38
2022-09-22T03:51:36.206Z,87.23
2022-09-22T03:54:02.739Z,86.86
2022-09-22T03:56:29.447Z,86.75
2022-09-22T03:58:56.040Z,86.79
2022-09-22T04:01:22.414Z,87.55
2022-09-22T04:03:49.546Z,88.00
2022-09-22T04:06:16.327Z,87.80
2022-09-22T04:08:42.681Z,87.19
2022-09-22T04:11:09.431Z,87.51
2022-09-22T04:13:35.822Z,87.29
2022-09-22T04:16:02.876Z,86.67
2022-09-22T04:18:30.095Z,87.19
2022-09-22T04:20:58.158Z,86.80
2022-09-22T04:23:26.205Z,86.65
2022-09-22T04:25:53.751Z,87.52
2022-09-22T04:28:20.075Z,87.02
2022-09-22T04:30:47.279Z,87.59
2022-09-22T04:33:13.843Z,87.45
2022-09-22T04:35:40.155Z,88.07
2022-09-22T04:38:06.592Z,87.84
2022-09-22T04:40:34.149Z,88.34
2022-09-22T04:43:00.532Z,87.96
2022-09-22T04:45:26.874Z,87.60
2022-09-22T04:47:54.839Z,87.48
2022-09-22T04:50:23.069Z,88.02
2022-09-22T04:52:51.927Z,88.13
2022-09-22T04:55:19.267Z,88.31
2022-09-22T04:57:53.302Z,88.22
2022-09-22T05:00:21.994Z,88.36
2022-09-22T05:02:49.130Z,87.94
2022-09-22T05:05:16.207Z,88.04
2022-09-22T05:07:46.722Z,88.20
2022-09-22T05:10:14.960Z,88.16
2022-09-22T05:12:42.512Z,88.08
2022-09-22T05:15:10.660Z,87.31
2022-09-22T05:17:37.087Z,87.13
2022-09-22T05:20:07.154Z,87.33
2022-09-22T05:22:39.726Z,87.65
2022-09-22T05:25:08.351Z,87.86
2022-09-22T05:27:35.055Z,87.60
2022-09-22T05:30:01.386Z,87.42
2022-09-22T05:32:27.688Z,87.61
2022-09-22T05:34:54.365Z,87.34
2022-09-22T05:37:20.682Z,87.19
2022-09-22T05:39:47.021Z,87.04
2022-09-22T05:42:13.958Z,86.88
2022-09-22T05:44:40.265Z,86.88
2022-09-22T05:47:06.579Z,87.19
2022-09-22T05:49:33.355Z,86.60
2022-09-22T05:51:59.702Z,86.27
2022-09-22T05:54:26.051Z,86.42
2022-09-22T05:56:52.799Z,87.26
2022-09-22T05:59:19.175Z,86.83
2022-09-22T06:01:45.527Z,87.48
2022-09-22T06:04:12.256Z,87.19
2022-09-22T06:06:38.556Z,87.21
2022-09-22T06:09:04.958Z,87.65
2022-09-22T06:11:31.811Z,88.16
2022-09-22T06:13:58.272Z,87.37
2022-09-22T06:16:24.691Z,87.55
2022-09-22T06:18:51.530Z,88.25
2022-09-22T06:21:18.780Z,87.39
2022-09-22T06:23:45.088Z,87.05
2022-09-22T06:26:11.452Z,87.16
2022-09-22T06:28:37.778Z,88.49
2022-09-22T06:31:04.164Z,85.78
2022-09-22T06:33:31.338Z,80.50
2022-09-22T06:36:01.812Z,78.21
2022-09-22T06:38:32.269Z,73.11
2022-09-22T06:41:01.720Z,71.45
2022-09-22T06:43:28.159Z,72.85
2022-09-22T06:46:00.591Z,65.08
2022-09-22T06:48:26.903Z,65.72
2022-09-22T06:50:54.403Z,66.97
2022-09-22T06:53:24.755Z,65.17
2022-09-22T06:55:53.982Z,63.80
2022-09-22T06:58:22.546Z,57.48
2022-09-22T07:00:49.154Z,58.80
2022-09-22T07:03:15.472Z,56.12
2022-09-22T07:05:43.986Z,55.08
2022-09-22T07:08:10.323Z,55.82
2022-09-22T07:10:38.014Z,52.62
2022-09-22T07:13:06.161Z,54.16
2022-09-22T07:15:35.543Z,53.65
2022-09-22T07:18:02.770Z,52.18
2022-09-22T07:20:29.487Z,49.89
2022-09-22T07:23:00.265Z,49.85
2022-09-22T07:25:36.125Z,49.02
2022-09-22T07:28:04.992Z,50.04
2022-09-22T07:30:31.851Z,48.72
2022-09-22T07:32:58.274Z,50.30
2022-09-22T07:35:24.619Z,48.86
2022-09-22T07:37:59.824Z,47.69
2022-09-22T07:40:26.180Z,46.94
2022-09-22T07:42:52.490Z,45.24
2022-09-22T07:45:19.345Z,43.74
2022-09-22T07:48:04.390Z,46.97
2022-09-22T07:50:31.215Z,44.68
2022-09-22T07:52:57.994Z,45.77
2022-09-22T07:55:25.203Z,48.43
2022-09-22T07:57:56.800Z,45.58
2022-09-22T08:00:32.257Z,46.09
2022-09-22T08:02:59.410Z,45.77
2022-09-22T08:05:27.541Z,43.90
2022-09-22T08:07:58.605Z,43.33
2022-09-22T08:10:26.092Z,44.73
2022-09-22T08:12:54.402Z,42.65
2022-09-22T08:15:26.886Z,39.68
2022-09-22T08:17:57.875Z,38.87
2022-09-22T08:20:27.538Z,40.66
2022-09-22T08:22:53.959Z,41.30
2022-09-22T08:25:20.272Z,39.62
2022-09-22T08:27:46.999Z,39.38
2022-09-22T08:30:13.453Z,39.23
2022-09-22T08:32:39.833Z,42.01
2022-09-22T08:35:09.339Z,41.44
2022-09-22T08:37:36.766Z,42.41
2022-09-22T08:40:04.002Z,40.66
2022-09-22T08:42:30.535Z,39.88
2022-09-22T08:45:01.311Z,41.29
2022-09-22T08:47:57.699Z,41.51
2022-09-22T08:50:50.110Z,39.31
2022-09-22T08:53:23.230Z,39.24
2022-09-22T08:55:58.246Z,39.33
2022-09-22T08:58:44.433Z,39.62
2022-09-22T09:02:00.982Z,38.81
2022-09-22T09:04:59.824Z,38.71
2022-09-22T09:07:50.869Z,38.49
2022-09-22T09:10:26.649Z,39.24
2022-09-22T09:12:53.579Z,38.29
2022-09-22T09:15:29.787Z,37.22
2022-09-22T09:18:02.060Z,38.44
2022-09-22T09:20:42.739Z,39.19
2022-09-22T09:23:18.069Z,37.76
2022-09-22T09:25:49.166Z,36.64
2022-09-22T09:28:25.520Z,38.86
2022-09-22T09:31:02.269Z,38.90
2022-09-22T09:33:49.324Z,39.62
2022-09-22T09:36:20.274Z,39.61
2022-09-22T09:38:52.426Z,37.42
2022-09-22T09:41:35.291Z,35.40
2022-09-22T09:44:04.575Z,40.00
2022-09-22T09:46:52.198Z,41.04
2022-09-22T09:49:23.249Z,39.10
2022-09-22T09:52:00.336Z,37.89
2022-09-22T09:54:27.716Z,38.59
2022-09-22T09:57:10.602Z,36.87
2022-09-22T10:00:04.778Z,36.45
2022-09-22T10:02:38.675Z,36.92
2022-09-22T10:05:19.887Z,35.87
2022-09-22T10:07:48.625Z,36.85
2022-09-22T10:10:37.932Z,37.25
2022-09-22T10:13:04.188Z,36.10
2022-09-22T10:15:36.790Z,36.92
2022-09-22T10:18:12.878Z,38.43
2022-09-22T10:20:39.254Z,36.11
2022-09-22T10:23:21.505Z,36.74
2022-09-22T10:25:49.555Z,36.25
2022-09-22T10:28:21.410Z,34.29
2022-09-22T10:31:04.715Z,36.00
2022-09-22T10:33:34.167Z,36.29
2022-09-22T10:36:06.446Z,38.98
2022-09-22T10:38:41.979Z,38.54
2022-09-22T10:41:21.569Z,37.52
2022-09-22T10:43:53.413Z,37.11
2022-09-22T10:46:28.563Z,36.71
2022-09-22T10:48:59.887Z,36.74
2022-09-22T10:51:41.505Z,36.04
2022-09-22T10:54:19.375Z,37.79
2022-09-22T10:56:57.194Z,38.54
2022-09-22T10:59:44.869Z,37.50
2022-09-22T11:02:30.420Z,34.94
2022-09-22T11:05:44.700Z,34.01
2022-09-22T11:08:32.838Z,35.68
2022-09-22T11:11:41.127Z,35.75
2022-09-22T11:14:16.085Z,36.12
2022-09-22T11:17:01.338Z,36.17
2022-09-22T11:19:56.055Z,35.29
2022-09-22T11:22:32.008Z,35.32
2022-09-22T11:25:21.482Z,34.53
2022-09-22T11:27:58.179Z,35.11
2022-09-22T11:30:25.307Z,35.69
2022-09-22T11:33:16.676Z,35.70
2022-09-22T11:35:57.836Z,34.53
2022-09-22T11:39:01.788Z,33.77
2022-09-22T11:41:41.373Z,35.98
2022-09-22T11:44:20.106Z,39.68
2022-09-22T11:46:56.171Z,36.26
2022-09-22T11:49:34.783Z,34.54
2022-09-22T11:52:17.730Z,35.54
2022-09-22T11:55:02.466Z,34.51
2022-09-22T11:57:34.590Z,34.72
2022-09-22T12:00:17.209Z,35.64
2022-09-22T12:02:49.740Z,37.27
2022-09-22T12:05:26.910Z,35.56
2022-09-22T12:08:02.864Z,35.50
2022-09-22T12:10:40.775Z,36.74
2022-09-22T12:13:13.398Z,34.79
2022-09-22T12:15:39.765Z,35.60
2022-09-22T12:18:12.225Z,38.23
2022-09-22T12:20:57.363Z,38.54
2022-09-22T12:23:51.273Z,39.69
2022-09-22T12:26:28.238Z,40.55
2022-09-22T12:28:55.231Z,41.55
2022-09-22T12:31:32.540Z,40.89
2022-09-22T12:33:58.979Z,41.14
2022-09-22T12:36:38.483Z,41.93
2022-09-22T12:39:13.988Z,41.52
2022-09-22T12:42:01.164Z,41.16
2022-09-22T12:44:32.077Z,41.04
2022-09-22T12:47:04.856Z,42.00
2022-09-22T12:49:31.361Z,41.65
2022-09-22T12:51:58.532Z,41.51
2022-09-22T12:54:28.757Z,41.58
2022-09-22T12:56:59.251Z,41.67
2022-09-22T12:59:38.214Z,40.92
2022-09-22T13:02:14.728Z,42.94
2022-09-22T13:04:56.859Z,43.47
2022-09-22T13:07:40.874Z,43.71
2022-09-22T13:10:22.573Z,43.75
2022-09-22T13:13:01.203Z,44.10
2022-09-22T13:15:52.144Z,42.44
2022-09-22T13:18:37.797Z,42.72
2022-09-22T13:21:13.484Z,42.17
2022-09-22T13:23:54.039Z,41.96
2022-09-22T13:26:24.961Z,42.79
2022-09-22T13:29:15.261Z,43.04
2022-09-22T13:31:51.326Z,43.23
2022-09-22T13:34:24.136Z,43.42
2022-09-22T13:37:12.522Z,43.70
2022-09-22T13:39:47.433Z,43.28
2022-09-22T13:42:22.599Z,43.70
2022-09-22T13:44:59.288Z,43.07
2022-09-22T13:47:28.275Z,44.64
2022-09-22T13:49:57.975Z,44.53
2022-09-22T13:52:31.687Z,43.27
2022-09-22T13:55:17.374Z,45.12
2022-09-22T13:57:44.700Z,45.75
2022-09-22T14:00:21.265Z,44.40
2022-09-22T14:02:48.032Z,44.61
2022-09-22T14:05:24.988Z,45.32
2022-09-22T14:08:11.420Z,45.60
2022-09-22T14:10:41.540Z,45.69
2022-09-22T14:13:37.031Z,45.45
2022-09-22T14:16:10.590Z,45.65
2022-09-22T14:18:44.971Z,46.33
2022-09-22T14:21:12.118Z,44.47
2022-09-22T14:23:45.763Z,44.04
2022-09-22T14:26:19.085Z,44.95
2022-09-22T14:28:46.256Z,44.50
2022-09-22T14:31:23.663Z,44.74
2022-09-22T14:33:50.179Z,45.04
2022-09-22T14:36:20.650Z,43.47
2022-09-22T14:39:05.413Z,43.03
2022-09-22T14:41:37.339Z,43.94
2022-09-22T14:44:27.049Z,44.95
2022-09-22T14:46:55.253Z,46.46
2022-09-22T14:49:41.705Z,45.43
2022-09-22T14:52:42.942Z,44.55
2022-09-22T14:55:36.215Z,44.49
2022-09-22T14:58:13.394Z,44.58
2022-09-22T15:01:10.617Z,44.12
2022-09-22T15:03:38.671Z,44.50
2022-09-22T15:06:14.269Z,45.41
2022-09-22T15:08:42.925Z,45.83
2022-09-22T15:11:10.312Z,44.66
2022-09-22T15:13:45.850Z,44.92
2022-09-22T15:16:41.315Z,44.65
2022-09-22T15:19:14.684Z,47.14
2022-09-22T15:21:51.161Z,47.38
2022-09-22T15:24:27.094Z,48.22
2022-09-22T15:26:57.182Z,47.60
2022-09-22T15:29:23.486Z,48.91
2022-09-22T15:31:50.225Z,49.42
2022-09-22T15:34:16.681Z,49.57
2022-09-22T15:36:46.487Z,49.40
2022-09-22T15:39:21.007Z,48.74
2022-09-22T15:41:48.180Z,48.67
2022-09-22T15:44:14.877Z,48.50
2022-09-22T15:46:42.631Z,48.89
2022-09-22T15:49:12.228Z,49.07
2022-09-22T15:51:38.544Z,50.18
2022-09-22T15:54:16.675Z,50.08
2022-09-22T15:56:44.858Z,50.55
2022-09-22T15:59:18.758Z,50.59
2022-09-22T16:01:45.852Z,51.32
2022-09-22T16:04:12.843Z,50.92
2022-09-22T16:06:41.791Z,51.26
2022-09-22T16:09:12.945Z,51.93
2022-09-22T16:11:39.244Z,51.68
2022-09-22T16:14:05.823Z,51.53
2022-09-22T16:16:35.135Z,51.30
2022-09-22T16:19:02.106Z,52.13
2022-09-22T16:21:33.261Z,52.83
2022-09-22T16:24:03.931Z,53.08
2022-09-22T16:26:31.580Z,53.65
2022-09-22T16:28:58.935Z,53.85
2022-09-22T16:31:26.168Z,54.00
2022-09-22T16:33:54.710Z,54.17
2022-09-22T16:36:22.567Z,55.15
2022-09-22T16:38:50.029Z,55.18
2022-09-22T16:41:27.894Z,56.17
2022-09-22T16:43:56.644Z,56.63
2022-09-22T16:46:26.877Z,56.54
2022-09-22T16:48:54.589Z,57.33
2022-09-22T16:51:21.938Z,57.56
2022-09-22T16:53:53.798Z,57.97
2022-09-22T16:56:21.346Z,58.58
2022-09-22T16:58:48.199Z,58.62
2022-09-22T17:01:19.465Z,59.21
2022-09-22T17:03:48.056Z,59.18
2022-09-22T17:06:16.651Z,59.99
2022-09-22T17:08:43.765Z,60.07
2022-09-22T17:11:14.418Z,60.59
2022-09-22T17:13:43.335Z,60.71
2022-09-22T17:16:30.323Z,60.48
2022-09-22T17:19:00.332Z,62.17
2022-09-22T17:21:30.153Z,62.88
2022-09-22T17:24:02.379Z,63.23
2022-09-22T17:26:31.227Z,63.66
2022-09-22T17:28:59.579Z,64.28
2022-09-22T17:31:28.291Z,63.66
2022-09-22T17:33:55.048Z,63.97
2022-09-22T17:36:23.841Z,64.81
2022-09-22T17:38:54.236Z,65.84
2022-09-22T17:41:23.619Z,66.86
2022-09-22T17:43:53.120Z,67.47
2022-09-22T17:46:20.856Z,69.04
2022-09-22T17:49:06.486Z,69.30
2022-09-22T17:51:58.983Z,69.96
2022-09-22T17:54:52.804Z,70.37
2022-09-22T17:57:21.955Z,70.89
2022-09-22T17:59:48.720Z,71.87
2022-09-22T18:02:18.396Z,72.58
2022-09-22T18:04:46.497Z,73.64
2022-09-22T18:07:17.688Z,74.18
2022-09-22T18:09:46.373Z,74.75
2022-09-22T18:12:24.609Z,74.49
2022-09-22T18:14:53.647Z,75.06
2022-09-22T18:17:23.738Z,75.74
2022-09-22T18:19:54.611Z,76.18
2022-09-22T18:22:22.062Z,76.37
2022-09-22T18:24:49.780Z,76.33
2022-09-22T18:27:19.425Z,76.76
2022-09-22T18:29:47.051Z,77.58
2022-09-22T18:32:13.591Z,78.22
2022-09-22T18:34:40.958Z,78.75
2022-09-22T18:37:08.600Z,78.73
2022-09-22T18:39:35.391Z,78.78
2022-09-22T18:42:01.857Z,79.55
2022-09-22T18:44:28.949Z,79.09
2022-09-22T18:46:56.311Z,79.63
2022-09-22T18:49:22.639Z,80.02
2022-09-22T18:51:53.348Z,79.92
2022-09-22T18:54:21.976Z,80.48
2022-09-22T18:56:49.797Z,81.22
2022-09-22T18:59:23.727Z,81.92
2022-09-22T19:01:50.933Z,82.19
2022-09-22T19:04:20.530Z,81.71
2022-09-22T19:07:08.444Z,82.57
2022-09-22T19:09:35.188Z,82.13
2022-09-22T19:12:03.047Z,81.90
2022-09-22T19:14:36.205Z,82.28
2022-09-22T19:17:03.903Z,81.98
2022-09-22T19:19:30.430Z,83.00
2022-09-22T19:21:56.767Z,82.47
2022-09-22T19:24:25.147Z,83.84
2022-09-22T19:26:57.935Z,83.64
2022-09-22T19:29:24.237Z,84.28
2022-09-22T19:31:51.115Z,85.20
2022-09-22T19:34:17.445Z,84.11
2022-09-22T19:36:44.244Z,83.77
2022-09-22T19:39:10.590Z,85.12
2022-09-22T19:41:40.443Z,85.16
2022-09-22T19:44:08.043Z,84.56
2022-09-22T19:46:34.372Z,84.59
2022-09-22T19:49:00.827Z,84.75
2022-09-22T19:51:27.650Z,85.46
2022-09-22T19:53:54.607Z,85.98
2022-09-22T19:56:20.964Z,86.09
2022-09-22T19:58:48.019Z,85.58
2022-09-22T20:01:33.156Z,85.88
2022-09-22T20:04:00.161Z,85.83
2022-09-22T20:06:27.749Z,86.23
2022-09-22T20:09:02.813Z,86.36
2022-09-22T20:11:33.488Z,86.53
2022-09-22T20:14:19.083Z,86.06
2022-09-22T20:17:06.186Z,85.56
2022-09-22T20:19:35.750Z,85.08
2022-09-22T20:22:27.926Z,84.85
2022-09-22T20:25:01.725Z,85.33
2022-09-22T20:27:31.459Z,84.77
2022-09-22T20:29:59.357Z,85.34
2022-09-22T20:32:27.522Z,86.00
2022-09-22T20:34:55.414Z,85.58
2022-09-22T20:37:23.384Z,85.11
2022-09-22T20:39:50.043Z,86.16
2022-09-22T20:42:16.764Z,85.88
2022-09-22T20:44:44.302Z,85.97
2022-09-22T20:47:19.790Z,86.35
2022-09-22T20:49:51.556Z,86.71
2022-09-22T20:52:20.149Z,86.64
2022-09-22T20:54:48.786Z,86.35
2022-09-22T20:57:16.508Z,86.50
2022-09-22T20:59:46.003Z,86.67
2022-09-22T21:02:14.550Z,86.26
2022-09-22T21:04:42.126Z,86.66
2022-09-22T21:07:09.052Z,86.33
2022-09-22T21:09:54.238Z,85.58
2022-09-22T21:12:20.654Z,85.46
2022-09-22T21:14:47.020Z,85.79
2022-09-22T21:17:14.010Z,85.58
2022-09-22T21:19:40.844Z,85.61
2022-09-22T21:22:07.298Z,85.97
2022-09-22T21:24:34.548Z,86.09
2022-09-22T21:27:01.013Z,87.08
2022-09-22T21:29:28.599Z,86.44
2022-09-22T21:31:56.504Z,86.90
2022-09-22T21:34:23.746Z,86.12
2022-09-22T21:36:50.811Z,85.95
2022-09-22T21:39:17.247Z,85.84
2022-09-22T21:41:44.059Z,85.80
2022-09-22T21:44:10.544Z,85.63
2022-09-22T21:46:41.321Z,85.72
2022-09-22T21:49:08.881Z,85.77
2022-09-22T21:51:44.612Z,86.44
2022-09-22T21:54:13.995Z,86.48
2022-09-22T21:56:40.403Z,86.57
2022-09-22T21:59:06.805Z,86.90
2022-09-22T22:01:36.681Z,86.71
2022-09-22T22:04:08.595Z,86.68
2022-09-22T22:06:40.681Z,86.62
2022-09-22T22:09:12.647Z,86.60
2022-09-22T22:11:46.556Z,86.27
2022-09-22T22:14:14.076Z,85.59
2022-09-22T22:16:42.612Z,86.19
2022-09-22T22:19:11.671Z,86.38
2022-09-22T22:21:42.754Z,86.36
2022-09-22T22:24:17.510Z,86.49
2022-09-22T22:26:51.949Z,86.63
2022-09-22T22:29:19.707Z,86.75
2022-09-22T22:31:48.895Z,86.35
2022-09-22T22:34:17.276Z,86.36
2022-09-22T22:36:44.063Z,85.46
2022-09-22T22:39:11.102Z,85.88
2022-09-22T22:41:39.267Z,86.22
2022-09-22T22:44:07.044Z,86.58
2022-09-22T22:46:35.085Z,86.66
2022-09-22T22:49:01.817Z,86.57
2022-09-22T22:51:28.159Z,86.42
2022-09-22T22:53:58.572Z,88.00
2022-09-22T22:56:26.876Z,88.54
2022-09-22T22:58:53.895Z,88.69
2022-09-22T23:01:22.054Z,87.69
2022-09-22T23:03:57.126Z,86.82
2022-09-22T23:06:25.423Z,86.44
2022-09-22T23:08:52.692Z,86.62
2022-09-22T23:11:27.507Z,86.54
2022-09-22T23:13:59.779Z,86.57
2022-09-22T23:16:28.325Z,86.39
2022-09-22T23:18:58.076Z,85.78
2022-09-22T23:21:26.212Z,86.22
2022-09-22T23:23:55.306Z,86.20
2022-09-22T23:26:22.306Z,86.73
2022-09-22T23:28:48.628Z,86.89
2022-09-22T23:31:18.530Z,87.21
2022-09-22T23:33:46.585Z,86.71
2022-09-22T23:36:17.007Z,85.83
2022-09-22T23:38:44.655Z,85.29
2022-09-22T23:41:11.150Z,85.91
2022-09-22T23:43:37.720Z,86.97
2022-09-22T23:46:05.489Z,87.17
2022-09-22T23:48:32.301Z,87.06
2022-09-22T23:50:59.794Z,86.80
2022-09-22T23:53:35.424Z,87.07
2022-09-22T23:56:02.445Z,86.50
2022-09-22T23:58:29.643Z,86.40
